createdAt,value
2018-04-22T00:00:44.536Z,5.6
2018-04-22T00:01:34.323Z,5.6
2018-04-22T00:02:24.366Z,5.6
2018-04-22T00:03:14.745Z,5.5
2018-04-22T00:04:04.788Z,5.5
2018-04-22T00:04:54.731Z,5.5
2018-04-22T00:05:44.915Z,5.5
2018-04-22T00:06:34.983Z,5.4
2018-04-22T00:07:24.848Z,5.5
2018-04-22T00:08:15.121Z,5.4
2018-04-22T00:09:04.898Z,5.4
2018-04-22T00:09:55.239Z,5.4
2018-04-22T00:10:45.289Z,5.4
2018-04-22T00:11:35.081Z,5.4
2018-04-22T00:12:25.434Z,5.4
2018-04-22T00:13:15.231Z,5.3
2018-04-22T00:14:05.540Z,5.3
2018-04-22T00:14:55.640Z,5.3
2018-04-22T00:15:45.485Z,5.3
2018-04-22T00:16:35.469Z,5.3
2018-04-22T00:17:25.256Z,5.2
2018-04-22T00:18:15.868Z,5.2
2018-04-22T00:19:05.924Z,5.2
2018-04-22T00:19:55.984Z,5.1
2018-04-22T00:20:45.483Z,5.1
2018-04-22T00:21:36.143Z,5.1
2018-04-22T00:22:25.911Z,5.1
2018-04-22T00:23:16.229Z,5.1
2018-04-22T00:24:06.300Z,5.1
2018-04-22T00:24:56.373Z,5
2018-04-22T00:25:46.166Z,5
2018-04-22T00:26:36.496Z,5
2018-04-22T00:27:26.574Z,5
2018-04-22T00:28:16.631Z,4.9
2018-04-22T00:29:06.410Z,4.9
2018-04-22T00:29:56.481Z,4.9
2018-04-22T00:30:46.859Z,4.9
2018-04-22T00:31:36.600Z,4.9
2018-04-22T00:32:26.954Z,4.8
2018-04-22T00:33:17.006Z,4.8
2018-04-22T00:34:07.068Z,4.8
2018-04-22T00:34:56.946Z,4.8
2018-04-22T00:35:46.922Z,4.8
2018-04-22T00:36:37.276Z,4.8
2018-04-22T00:37:27.058Z,4.8
2018-04-22T00:38:17.391Z,4.7
2018-04-22T00:39:07.445Z,4.7
2018-04-22T00:39:57.524Z,4.7
2018-04-22T00:40:47.596Z,4.7
2018-04-22T00:41:37.371Z,4.7
2018-04-22T00:42:27.435Z,4.6
2018-04-22T00:43:17.509Z,4.6
2018-04-22T00:44:07.566Z,4.6
2018-04-22T00:44:57.935Z,4.6
2018-04-22T00:45:47.738Z,4.6
2018-04-22T00:46:38.025Z,4.6
2018-04-22T00:47:27.506Z,4.6
2018-04-22T00:48:18.154Z,4.6
2018-04-22T00:49:08.218Z,4.6
2018-04-22T00:49:58.273Z,4.6
2018-04-22T00:50:48.345Z,4.6
2018-04-22T00:51:38.418Z,4.5
2018-04-22T00:52:28.240Z,4.5
2018-04-22T00:53:18.520Z,4.5
2018-04-22T00:54:08.322Z,4.5
2018-04-22T00:54:58.655Z,4.4
2018-04-22T00:55:48.449Z,4.4
2018-04-22T00:56:38.793Z,4.4
2018-04-22T00:57:28.863Z,4.4
2018-04-22T00:58:18.921Z,4.4
2018-04-22T00:59:08.412Z,4.4
2018-04-22T00:59:59.064Z,4.4
2018-04-22T01:00:49.101Z,4.4
2018-04-22T01:01:39.157Z,4.4
2018-04-22T01:02:28.948Z,4.4
2018-04-22T01:03:19.286Z,4.4
2018-04-22T01:04:09.408Z,4.4
2018-04-22T01:04:58.855Z,4.4
2018-04-22T01:05:49.209Z,4.4
2018-04-22T01:06:39.553Z,4.4
2018-04-22T01:07:29.323Z,4.4
2018-04-22T01:08:19.398Z,4.4
2018-04-22T01:09:09.751Z,4.4
2018-04-22T01:09:59.820Z,4.4
2018-04-22T01:10:49.891Z,4.4
2018-04-22T01:11:39.925Z,4.4
2018-04-22T01:12:30.002Z,4.4
2018-04-22T01:13:20.042Z,4.4
2018-04-22T01:14:10.131Z,4.4
2018-04-22T01:15:00.185Z,4.3
2018-04-22T01:15:50.235Z,4.3
2018-04-22T01:16:40.335Z,4.3
2018-04-22T01:17:29.809Z,4.3
2018-04-22T01:18:20.429Z,4.3
2018-04-22T01:19:10.220Z,4.3
2018-04-22T01:20:00.559Z,4.3
2018-04-22T01:20:50.640Z,4.3
2018-04-22T01:21:40.706Z,4.3
2018-04-22T01:22:30.769Z,4.3
2018-04-22T01:23:20.562Z,4.3
2018-04-22T01:24:10.597Z,4.3
2018-04-22T01:25:00.970Z,4.3
2018-04-22T01:25:50.735Z,4.3
2018-04-22T01:26:40.543Z,4.3
2018-04-22T01:27:30.841Z,4.3
2018-04-22T01:28:21.203Z,4.3
2018-04-22T01:29:10.987Z,4.3
2018-04-22T01:30:01.061Z,4.3
2018-04-22T01:30:51.383Z,4.3
2018-04-22T01:31:41.461Z,4.3
2018-04-22T01:32:31.240Z,4.3
2018-04-22T01:33:21.050Z,4.3
2018-04-22T01:34:11.640Z,4.3
2018-04-22T01:35:01.700Z,4.2
2018-04-22T01:35:51.766Z,4.2
2018-04-22T01:36:41.861Z,4.2
2018-04-22T01:37:31.609Z,4.2
2018-04-22T01:38:21.688Z,4.2
2018-04-22T01:39:12.008Z,4.2
2018-04-22T01:40:02.113Z,4.2
2018-04-22T01:40:52.150Z,4.2
2018-04-22T01:41:42.220Z,4.1
2018-04-22T01:42:32.008Z,4.1
2018-04-22T01:43:22.337Z,4.1
2018-04-22T01:44:12.132Z,4.1
2018-04-22T01:45:02.198Z,4.1
2018-04-22T01:45:52.518Z,4.1
2018-04-22T01:46:42.315Z,4.1
2018-04-22T01:47:32.675Z,4.1
2018-04-22T01:48:22.718Z,4.1
2018-04-22T01:49:12.786Z,4.1
2018-04-22T01:50:02.868Z,4.1
2018-04-22T01:50:52.900Z,4.1
2018-04-22T01:51:42.700Z,4
2018-04-22T01:52:32.759Z,4.1
2018-04-22T01:53:23.099Z,4
2018-04-22T01:54:12.883Z,4
2018-04-22T01:55:02.951Z,4
2018-04-22T01:55:53.311Z,4
2018-04-22T01:56:43.356Z,4
2018-04-22T01:57:33.432Z,3.9
2018-04-22T01:58:23.213Z,3.9
2018-04-22T01:59:12.995Z,3.9
2018-04-22T02:00:03.641Z,4
2018-04-22T02:00:53.400Z,4
2018-04-22T02:01:43.449Z,4
2018-04-22T02:02:33.804Z,4.1
2018-04-22T02:03:23.872Z,4
2018-04-22T02:04:13.934Z,4.1
2018-04-22T02:05:04.014Z,4
2018-04-22T02:05:53.517Z,4
2018-04-22T02:06:44.116Z,3.9
2018-04-22T02:07:34.196Z,3.9
2018-04-22T02:08:24.249Z,3.9
2018-04-22T02:09:14.049Z,4
2018-04-22T02:10:03.809Z,4
2018-04-22T02:10:54.465Z,3.9
2018-04-22T02:11:44.494Z,3.9
2018-04-22T02:12:34.295Z,3.9
2018-04-22T02:13:24.346Z,3.9
2018-04-22T02:14:14.704Z,3.9
2018-04-22T02:15:04.767Z,3.9
2018-04-22T02:15:54.834Z,3.9
2018-04-22T02:16:44.877Z,3.9
2018-04-22T02:17:34.948Z,3.9
2018-04-22T02:18:25.003Z,3.9
2018-04-22T02:19:15.063Z,3.9
2018-04-22T02:20:04.846Z,3.8
2018-04-22T02:20:55.189Z,3.8
2018-04-22T02:21:44.722Z,3.8
2018-04-22T02:22:35.320Z,3.8
2018-04-22T02:23:25.366Z,3.8
2018-04-22T02:24:15.435Z,3.8
2018-04-22T02:25:05.219Z,3.8
2018-04-22T02:25:55.588Z,3.8
2018-04-22T02:26:45.411Z,3.8
2018-04-22T02:27:35.722Z,3.8
2018-04-22T02:28:25.210Z,3.8
2018-04-22T02:29:15.542Z,3.8
2018-04-22T02:30:05.919Z,3.8
2018-04-22T02:30:55.956Z,3.7
2018-04-22T02:31:45.745Z,3.7
2018-04-22T02:32:36.140Z,3.7
2018-04-22T02:33:26.139Z,3.7
2018-04-22T02:34:15.939Z,3.6
2018-04-22T02:35:06.294Z,3.7
2018-04-22T02:35:56.354Z,3.6
2018-04-22T02:36:46.113Z,3.6
2018-04-22T02:37:36.208Z,3.6
2018-04-22T02:38:26.568Z,3.6
2018-04-22T02:39:16.603Z,3.6
2018-04-22T02:40:06.642Z,3.6
2018-04-22T02:40:56.413Z,3.6
2018-04-22T02:41:46.511Z,3.6
2018-04-22T02:42:36.861Z,3.6
2018-04-22T02:43:26.919Z,3.6
2018-04-22T02:44:16.684Z,3.6
2018-04-22T02:45:07.052Z,3.6
2018-04-22T02:45:57.128Z,3.6
2018-04-22T02:46:47.189Z,3.5
2018-04-22T02:47:36.661Z,3.5
2018-04-22T02:48:27.305Z,3.5
2018-04-22T02:49:17.342Z,3.5
2018-04-22T02:50:07.431Z,3.5
2018-04-22T02:50:57.527Z,3.4
2018-04-22T02:51:47.573Z,3.4
2018-04-22T02:52:37.313Z,3.4
2018-04-22T02:53:27.129Z,3.4
2018-04-22T02:54:17.448Z,3.4
2018-04-22T02:55:07.517Z,3.4
2018-04-22T02:55:57.862Z,3.4
2018-04-22T02:56:47.933Z,3.4
2018-04-22T02:57:37.717Z,3.4
2018-04-22T02:58:27.765Z,3.4
2018-04-22T02:59:18.095Z,3.4
2018-04-22T03:00:08.168Z,3.4
2018-04-22T03:00:57.964Z,3.4
2018-04-22T03:01:48.336Z,3.4
2018-04-22T03:02:37.804Z,3.4
2018-04-22T03:03:27.855Z,3.3
2018-04-22T03:04:18.483Z,3.3
2018-04-22T03:05:08.539Z,3.4
2018-04-22T03:05:58.058Z,3.3
2018-04-22T03:06:48.687Z,3.3
2018-04-22T03:07:38.190Z,3.3
2018-04-22T03:08:28.789Z,3.3
2018-04-22T03:09:18.588Z,3.3
2018-04-22T03:10:08.921Z,3.3
2018-04-22T03:10:58.444Z,3.3
2018-04-22T03:11:49.096Z,3.3
2018-04-22T03:12:39.138Z,3.3
2018-04-22T03:13:29.177Z,3.3
2018-04-22T03:14:18.966Z,3.3
2018-04-22T03:15:09.299Z,3.3
2018-04-22T03:15:59.369Z,3.3
2018-04-22T03:16:49.163Z,3.2
2018-04-22T03:17:39.520Z,3.2
2018-04-22T03:18:29.567Z,3.2
2018-04-22T03:19:19.629Z,3.2
2018-04-22T03:20:09.687Z,3.1
2018-04-22T03:20:59.182Z,3.2
2018-04-22T03:21:49.538Z,3.1
2018-04-22T03:22:39.317Z,3.1
2018-04-22T03:23:29.648Z,3.1
2018-04-22T03:24:20.012Z,3.1
2018-04-22T03:25:09.986Z,3.1
2018-04-22T03:26:00.121Z,3.1
2018-04-22T03:26:50.200Z,3.1
2018-04-22T03:27:39.697Z,3.1
2018-04-22T03:28:30.046Z,3
2018-04-22T03:29:20.104Z,3
2018-04-22T03:30:10.447Z,3
2018-04-22T03:31:00.532Z,3
2018-04-22T03:31:50.588Z,3
2018-04-22T03:32:40.659Z,2.9
2018-04-22T03:33:30.698Z,2.9
2018-04-22T03:34:20.470Z,2.9
2018-04-22T03:35:10.818Z,2.9
2018-04-22T03:36:00.907Z,2.9
2018-04-22T03:36:50.981Z,2.9
2018-04-22T03:37:41.024Z,2.9
2018-04-22T03:38:31.070Z,2.9
2018-04-22T03:39:21.117Z,2.9
2018-04-22T03:40:11.200Z,2.9
2018-04-22T03:41:01.290Z,2.9
2018-04-22T03:41:51.047Z,2.9
2018-04-22T03:42:41.111Z,2.9
2018-04-22T03:43:31.520Z,2.9
2018-04-22T03:44:21.522Z,2.9
2018-04-22T03:45:11.571Z,2.9
2018-04-22T03:46:01.386Z,2.9
2018-04-22T03:46:51.136Z,2.9
2018-04-22T03:47:41.473Z,2.9
2018-04-22T03:48:31.555Z,2.9
2018-04-22T03:49:21.889Z,2.9
2018-04-22T03:50:11.681Z,2.9
2018-04-22T03:51:02.018Z,2.9
2018-04-22T03:51:52.097Z,2.9
2018-04-22T03:52:42.165Z,2.9
2018-04-22T03:53:31.938Z,2.9
2018-04-22T03:54:22.278Z,2.9
2018-04-22T03:55:12.343Z,2.9
2018-04-22T03:56:02.424Z,2.9
2018-04-22T03:56:51.900Z,2.9
2018-04-22T03:57:42.526Z,3
2018-04-22T03:58:32.623Z,3
2018-04-22T03:59:22.104Z,3
2018-04-22T04:00:12.715Z,3
2018-04-22T04:01:03.030Z,3.1
2018-04-22T04:01:52.590Z,3.1
2018-04-22T04:02:42.627Z,3.1
2018-04-22T04:03:32.678Z,3.1
2018-04-22T04:04:23.063Z,3.1
2018-04-22T04:05:13.111Z,3.1
2018-04-22T04:06:03.171Z,3.2
2018-04-22T04:06:53.232Z,3.2
2018-04-22T04:07:43.002Z,3.2
2018-04-22T04:08:33.367Z,3.3
2018-04-22T04:09:23.139Z,3.3
2018-04-22T04:10:13.481Z,3.3
2018-04-22T04:11:03.562Z,3.3
2018-04-22T04:11:53.320Z,3.3
2018-04-22T04:12:43.681Z,3.4
2018-04-22T04:13:33.745Z,3.4
2018-04-22T04:14:23.778Z,3.4
2018-04-22T04:15:13.847Z,3.5
2018-04-22T04:16:03.644Z,3.6
2018-04-22T04:16:53.992Z,3.6
2018-04-22T04:17:43.779Z,3.6
2018-04-22T04:18:33.820Z,3.6
2018-04-22T04:19:24.284Z,3.6
2018-04-22T04:20:14.244Z,3.7
2018-04-22T04:21:04.308Z,3.8
2018-04-22T04:21:54.360Z,3.8
2018-04-22T04:22:44.423Z,3.8
2018-04-22T04:23:34.228Z,3.9
2018-04-22T04:24:24.551Z,3.9
2018-04-22T04:25:14.639Z,4
2018-04-22T04:26:04.699Z,4.1
2018-04-22T04:26:54.772Z,4.1
2018-04-22T04:27:44.853Z,4.1
2018-04-22T04:28:34.635Z,4.2
2018-04-22T04:29:24.964Z,4.3
2018-04-22T04:30:14.431Z,4.3
2018-04-22T04:31:05.065Z,4.4
2018-04-22T04:31:55.117Z,4.4
2018-04-22T04:32:45.180Z,4.5
2018-04-22T04:33:35.255Z,4.6
2018-04-22T04:34:25.333Z,4.6
2018-04-22T04:35:15.388Z,4.7
2018-04-22T04:36:05.597Z,4.8
2018-04-22T04:36:54.960Z,4.9
2018-04-22T04:37:45.288Z,5.1
2018-04-22T04:38:35.643Z,5.3
2018-04-22T04:39:25.709Z,5.5
2018-04-22T04:40:15.961Z,5.7
2018-04-22T04:41:05.282Z,6
2018-04-22T04:41:55.607Z,6.3
2018-04-22T04:42:45.947Z,6.5
2018-04-22T04:43:36.025Z,6.8
2018-04-22T04:44:26.076Z,7.1
2018-04-22T04:45:16.138Z,7.4
2018-04-22T04:46:06.198Z,7.8
2018-04-22T04:46:56.256Z,8.1
2018-04-22T04:47:46.320Z,8.4
2018-04-22T04:48:36.372Z,8.8
2018-04-22T04:49:26.188Z,9.1
2018-04-22T04:50:16.548Z,9.4
2018-04-22T04:51:06.595Z,9.8
2018-04-22T04:51:56.642Z,10.2
2018-04-22T04:52:46.716Z,10.5
2018-04-22T04:53:36.765Z,10.9
2018-04-22T04:54:27.062Z,11.2
2018-04-22T04:55:16.891Z,11.5
2018-04-22T04:56:06.991Z,11.9
2018-04-22T04:56:57.022Z,12.2
2018-04-22T04:57:47.078Z,12.5
2018-04-22T04:58:37.144Z,12.8
2018-04-22T04:59:27.208Z,13.1
2018-04-22T05:00:17.128Z,13.4
2018-04-22T05:01:07.347Z,13.7
2018-04-22T05:01:57.423Z,14
2018-04-22T05:02:47.486Z,14.3
2018-04-22T05:03:37.544Z,14.6
2018-04-22T05:04:27.316Z,14.9
2018-04-22T05:05:17.664Z,15.2
2018-04-22T05:06:07.701Z,15.6
2018-04-22T05:06:57.774Z,15.8
2018-04-22T05:07:47.556Z,16.1
2018-04-22T05:08:37.904Z,16.4
2018-04-22T05:09:27.959Z,16.8
2018-04-22T05:11:08.104Z,17.3
2018-04-22T05:11:57.912Z,17.6
2018-04-22T05:12:47.941Z,17.9
2018-04-22T05:13:37.709Z,18.3
2018-04-22T05:14:28.075Z,18.5
2018-04-22T05:15:18.143Z,18.8
2018-04-22T05:16:07.915Z,19.1
2018-04-22T05:16:58.313Z,19.4
2018-04-22T05:17:48.612Z,19.8
2018-04-22T05:18:38.694Z,20.1
2018-04-22T05:19:28.768Z,20.5
2018-04-22T05:20:18.784Z,20.8
2018-04-22T05:21:08.596Z,21.2
2018-04-22T05:21:58.921Z,21.5
2018-04-22T05:22:48.979Z,21.8
2018-04-22T05:23:39.027Z,22.1
2018-04-22T05:24:28.836Z,22.5
2018-04-22T05:25:19.169Z,22.9
2018-04-22T05:26:08.676Z,23.2
2018-04-22T05:26:59.027Z,23.5
2018-04-22T05:27:49.347Z,23.9
2018-04-22T05:28:39.427Z,24.2
2018-04-22T05:29:29.483Z,24.6
2018-04-22T05:30:19.536Z,25
2018-04-22T05:31:09.736Z,25.3
2018-04-22T05:31:59.680Z,25.8
2018-04-22T05:32:49.728Z,26.1
2018-04-22T05:33:39.800Z,26.4
2018-04-22T05:34:29.878Z,26.9
2018-04-22T05:35:19.938Z,27.3
2018-04-22T05:36:10.002Z,27.7
2018-04-22T05:37:00.060Z,28.1
2018-04-22T05:37:50.126Z,28.5
2018-04-22T05:38:40.163Z,28.9
2018-04-22T05:39:29.969Z,29.4
2018-04-22T05:40:20.300Z,29.8
2018-04-22T05:41:10.089Z,30.2
2018-04-22T05:42:00.444Z,30.6
2018-04-22T05:42:50.504Z,31
2018-04-22T05:43:40.281Z,31.4
2018-04-22T05:44:30.075Z,31.9
2018-04-22T05:45:20.676Z,32.3
2018-04-22T05:46:10.756Z,32.6
2018-04-22T05:47:00.802Z,33.1
2018-04-22T05:47:50.898Z,33.5
2018-04-22T05:48:40.957Z,34
2018-04-22T05:49:31.008Z,34.4
2018-04-22T05:50:21.076Z,34.9
2018-04-22T05:51:10.577Z,35.3
2018-04-22T05:52:00.938Z,35.8
2018-04-22T05:52:50.997Z,36.3
2018-04-22T05:53:41.311Z,36.8
2018-04-22T05:54:31.378Z,37.2
2018-04-22T05:55:21.441Z,37.6
2018-04-22T05:56:11.502Z,38.1
2018-04-22T05:57:01.301Z,38.4
2018-04-22T05:57:51.364Z,38.8
2018-04-22T05:58:41.689Z,39.2
2018-04-22T05:59:31.756Z,39.8
2018-04-22T06:00:21.552Z,40.2
2018-04-22T06:01:11.341Z,40.7
2018-04-22T06:02:01.959Z,41.3
2018-04-22T06:02:52.312Z,41.7
2018-04-22T06:03:41.785Z,42.3
2018-04-22T06:04:31.572Z,42.7
2018-04-22T06:05:21.921Z,43.2
2018-04-22T06:06:12.000Z,43.6
2018-04-22T06:07:02.057Z,44.1
2018-04-22T06:07:52.415Z,44.7
2018-04-22T06:08:42.349Z,45.2
2018-04-22T06:09:32.239Z,45.6
2018-04-22T06:10:22.294Z,46.1
2018-04-22T06:11:12.716Z,46.4
2018-04-22T06:12:02.459Z,46.8
2018-04-22T06:12:52.766Z,47.1
2018-04-22T06:13:42.822Z,47.4
2018-04-22T06:14:32.626Z,48
2018-04-22T06:15:22.964Z,48.5
2018-04-22T06:16:13.036Z,48.9
2018-04-22T06:17:03.123Z,49.4
2018-04-22T06:17:52.590Z,49.9
2018-04-22T06:18:43.227Z,50.3
2018-04-22T06:19:33.001Z,50.8
2018-04-22T06:20:23.363Z,51.2
2018-04-22T06:21:13.132Z,51.6
2018-04-22T06:22:53.686Z,52.4
2018-04-22T06:23:43.584Z,53
2018-04-22T06:24:33.681Z,53.4
2018-04-22T06:25:23.449Z,53.9
2018-04-22T06:26:13.764Z,54.3
2018-04-22T06:27:03.568Z,54.8
2018-04-22T06:27:53.616Z,55.3
2018-04-22T06:28:43.956Z,55.9
2018-04-22T06:29:34.047Z,56.2
2018-04-22T06:30:24.098Z,56.7
2018-04-22T06:31:14.162Z,58.3
2018-04-22T06:32:04.261Z,57.9
2018-04-22T06:33:44.082Z,85
2018-04-22T06:34:33.553Z,50.8
2018-04-22T06:35:24.477Z,49.7
2018-04-22T06:36:14.556Z,49
2018-04-22T06:37:04.328Z,48.5
2018-04-22T06:37:54.675Z,48.3
2018-04-22T06:38:44.728Z,48.4
2018-04-22T06:39:34.532Z,48.8
2018-04-22T06:40:24.870Z,49.4
2018-04-22T06:41:14.654Z,50.1
2018-04-22T06:42:04.423Z,50.8
2018-04-22T06:42:54.773Z,51.5
2018-04-22T06:44:34.898Z,53.1
2018-04-22T06:45:24.958Z,53.9
2018-04-22T06:46:15.031Z,54.5
2018-04-22T06:47:05.076Z,85
2018-04-22T06:47:54.883Z,57.6
2018-04-22T06:48:45.235Z,57.4
2018-04-22T06:49:35.275Z,53.6
2018-04-22T06:50:25.618Z,51.3
2018-04-22T06:51:15.415Z,50.3
2018-04-22T06:52:05.485Z,49.8
2018-04-22T06:52:55.824Z,49.8
2018-04-22T06:53:45.316Z,49.9
2018-04-22T06:54:35.939Z,50.4
2018-04-22T06:55:26.022Z,51.1
2018-04-22T06:57:06.132Z,52.9
2018-04-22T06:57:56.224Z,53.9
2018-04-22T06:58:46.492Z,54.8
2018-04-22T06:59:36.318Z,57.1
2018-04-22T07:00:26.406Z,58.3
2018-04-22T07:01:15.909Z,55.9
2018-04-22T07:02:05.949Z,54.1
2018-04-22T07:02:56.032Z,52.6
2018-04-22T07:03:46.649Z,50.6
2018-04-22T07:04:36.727Z,49.4
2018-04-22T07:05:26.660Z,48.9
2018-04-22T07:06:16.573Z,48.8
2018-04-22T07:07:06.633Z,49.3
2018-04-22T07:07:56.983Z,50.3
2018-04-22T07:08:47.046Z,51.7
2018-04-22T07:09:36.834Z,53.1
2018-04-22T07:10:26.606Z,54.6
2018-04-22T07:11:17.223Z,56.9
2018-04-22T07:12:07.306Z,58.9
2018-04-22T07:13:47.146Z,56.8
2018-04-22T07:14:37.225Z,56
2018-04-22T07:15:27.569Z,54.4
2018-04-22T07:16:17.647Z,52.8
2018-04-22T07:17:07.706Z,51.5
2018-04-22T07:17:57.737Z,50.8
2018-04-22T07:18:47.520Z,50.8
2018-04-22T07:19:37.903Z,51.3
2018-04-22T07:20:27.946Z,51.9
2018-04-22T07:22:08.065Z,52.6
2018-04-22T07:22:58.107Z,52.6
2018-04-22T07:23:48.211Z,52.4
2018-04-22T07:24:37.964Z,52.2
2018-04-22T07:25:28.302Z,51.9
2018-04-22T07:26:18.388Z,51.8
2018-04-22T07:27:08.161Z,51.8
2018-04-22T07:27:58.520Z,51.8
2018-04-22T07:28:48.574Z,51.9
2018-04-22T07:29:38.346Z,52.1
2018-04-22T07:30:28.446Z,52.3
2018-04-22T07:31:17.917Z,52.3
2018-04-22T07:32:08.586Z,52.1
2018-04-22T07:32:58.339Z,52.1
2018-04-22T07:33:48.703Z,52.1
2018-04-22T07:34:38.751Z,52.1
2018-04-22T07:35:28.317Z,52.3
2018-04-22T07:37:08.932Z,52.6
2018-04-22T07:37:58.707Z,52.7
2018-04-22T07:38:49.075Z,52.7
2018-04-22T07:39:39.146Z,52.6
2018-04-22T07:40:29.239Z,52.9
2018-04-22T07:41:19.563Z,53
2018-04-22T07:42:09.614Z,53.1
2018-04-22T07:42:59.678Z,53.2
2018-04-22T07:43:49.168Z,53.3
2018-04-22T07:44:39.228Z,53.4
2018-04-22T07:45:29.870Z,53.6
2018-04-22T07:46:19.920Z,53.8
2018-04-22T07:47:09.704Z,54
2018-04-22T07:47:59.490Z,54.1
2018-04-22T07:48:49.846Z,54.2
2018-04-22T07:49:39.904Z,54.4
2018-04-22T07:50:30.241Z,54.4
2018-04-22T07:51:20.340Z,54.5
2018-04-22T07:52:10.382Z,54.6
2018-04-22T07:53:00.441Z,54.8
2018-04-22T07:53:50.211Z,54.8
2018-04-22T07:54:40.093Z,54.9
2018-04-22T07:55:30.637Z,55.1
2018-04-22T07:56:20.223Z,55.3
2018-04-22T07:57:10.467Z,55.4
2018-04-22T07:58:00.533Z,55.3
2018-04-22T07:58:50.611Z,55.3
2018-04-22T07:59:40.683Z,55.4
2018-04-22T08:00:30.737Z,55.6
2018-04-22T08:01:20.527Z,55.7
2018-04-22T08:02:10.857Z,55.8
2018-04-22T08:03:00.936Z,55.9
2018-04-22T08:03:51.004Z,56
2018-04-22T08:04:41.336Z,56.1
2018-04-22T08:05:31.122Z,56.3
2018-04-22T08:06:21.453Z,56.4
2018-04-22T08:07:11.545Z,56.5
2018-04-22T08:08:01.307Z,56.6
2018-04-22T08:08:51.673Z,56.7
2018-04-22T08:09:41.725Z,56.8
2018-04-22T08:10:31.788Z,56.9
2018-04-22T08:11:21.569Z,57.2
2018-04-22T08:12:11.912Z,57.4
2018-04-22T08:13:01.983Z,57.6
2018-04-22T08:14:41.833Z,57.8
2018-04-22T08:15:31.901Z,57.9
2018-04-22T08:16:21.515Z,58
2018-04-22T08:17:12.301Z,58.2
2018-04-22T08:18:02.077Z,58.3
2018-04-22T08:18:52.427Z,58.4
2018-04-22T08:20:32.013Z,58.8
2018-04-22T08:21:22.625Z,58.9
2018-04-22T08:22:12.710Z,58.9
2018-04-22T08:23:02.183Z,58.8
2018-04-22T08:23:52.548Z,59
2018-04-22T08:24:42.878Z,59.3
2018-04-22T08:25:32.690Z,59.3
2018-04-22T08:26:23.023Z,59.4
2018-04-22T08:27:13.101Z,59.5
2018-04-22T08:28:02.872Z,59.8
2018-04-22T08:28:53.241Z,59.9
2018-04-22T08:29:43.276Z,60
2018-04-22T08:30:33.350Z,60.1
2018-04-22T08:31:23.394Z,60.3
2018-04-22T08:32:13.186Z,60.5
2018-04-22T08:33:03.259Z,60.6
2018-04-22T08:33:53.717Z,60.6
2018-04-22T08:34:43.656Z,60.6
2018-04-22T08:35:33.444Z,60.7
2018-04-22T08:36:23.551Z,60.6
2018-04-22T08:37:13.582Z,60.6
2018-04-22T08:38:03.914Z,60.6
2018-04-22T08:38:53.965Z,60.8
2018-04-22T08:39:44.041Z,61.1
2018-04-22T08:40:33.843Z,61.3
2018-04-22T08:41:23.919Z,61.4
2018-04-22T08:42:14.248Z,61.5
2018-04-22T08:43:04.019Z,61.4
2018-04-22T08:43:53.940Z,61.5
2018-04-22T08:44:44.450Z,61.6
2018-04-22T08:45:34.205Z,61.9
2018-04-22T08:46:24.293Z,61.9
2018-04-22T08:47:14.637Z,61.8
2018-04-22T08:48:04.736Z,61.8
2018-04-22T08:48:54.754Z,61.9
2018-04-22T08:49:44.828Z,61.9
2018-04-22T08:50:34.962Z,61.9
2018-04-22T08:51:24.675Z,61.9
2018-04-22T08:52:14.746Z,61.8
2018-04-22T08:53:05.080Z,62
2018-04-22T08:53:55.155Z,62.2
2018-04-22T08:54:44.942Z,62.1
2018-04-22T08:55:35.269Z,61.9
2018-04-22T08:56:25.077Z,61.9
2018-04-22T08:57:15.133Z,62.1
2018-04-22T08:58:05.474Z,61.9
2018-04-22T08:58:55.544Z,61.8
2018-04-22T08:59:45.583Z,62
2018-04-22T09:00:35.398Z,61.9
2018-04-22T09:01:25.736Z,61.9
2018-04-22T09:02:15.780Z,61.7
2018-04-22T09:03:05.872Z,61.8
2018-04-22T09:03:55.922Z,62.1
2018-04-22T09:04:45.702Z,62.3
2018-04-22T09:05:36.065Z,62.4
2018-04-22T09:06:26.121Z,62.2
2018-04-22T09:07:15.899Z,62.3
2018-04-22T09:08:06.259Z,62.6
2018-04-22T09:08:56.298Z,62.8
2018-04-22T09:09:46.408Z,63.1
2018-04-22T09:10:36.437Z,63.3
2018-04-22T09:11:26.511Z,63.3
2018-04-22T09:12:16.576Z,63.3
2018-04-22T09:13:06.655Z,63.4
2018-04-22T09:13:56.707Z,63.6
2018-04-22T09:14:46.504Z,63.8
2018-04-22T09:15:36.821Z,63.6
2018-04-22T09:16:27.122Z,63.4
2018-04-22T09:17:16.951Z,63.3
2018-04-22T09:18:07.062Z,63.3
2018-04-22T09:18:57.094Z,63.5
2018-04-22T09:19:47.149Z,63.7
2018-04-22T09:20:36.936Z,64
2018-04-22T09:21:27.283Z,64.1
2018-04-22T09:22:17.360Z,64.1
2018-04-22T09:23:07.141Z,64.2
2018-04-22T09:23:57.489Z,64.4
2018-04-22T09:24:47.545Z,64.6
2018-04-22T09:25:37.053Z,64.6
2018-04-22T09:26:27.668Z,64.5
2018-04-22T09:27:17.743Z,64.6
2018-04-22T09:28:07.547Z,64.7
2018-04-22T09:28:57.850Z,64.8
2018-04-22T09:29:47.378Z,64.9
2018-04-22T09:30:37.992Z,65
2018-04-22T09:31:28.067Z,65.1
2018-04-22T09:32:17.847Z,65.3
2018-04-22T09:33:08.337Z,65.5
2018-04-22T09:33:58.270Z,65.6
2018-04-22T09:34:48.314Z,65.2
2018-04-22T09:35:38.389Z,65.1
2018-04-22T09:36:28.479Z,65.1
2018-04-22T09:37:18.223Z,65.4
2018-04-22T09:38:08.579Z,65.6
2018-04-22T09:38:58.636Z,65.8
2018-04-22T09:39:48.703Z,65.6
2018-04-22T09:40:38.763Z,65.4
2018-04-22T09:41:28.878Z,65.5
2018-04-22T09:42:18.901Z,65.5
2018-04-22T09:43:09.233Z,65.6
2018-04-22T09:43:59.044Z,65.8
2018-04-22T09:44:49.088Z,65.7
2018-04-22T09:45:39.151Z,65.8
2018-04-22T09:46:29.213Z,65.9
2018-04-22T09:47:19.021Z,66.1
2018-04-22T09:48:09.389Z,66.3
2018-04-22T09:48:59.422Z,66.6
2018-04-22T09:49:49.607Z,66.8
2018-04-22T09:50:38.982Z,66.8
2018-04-22T09:51:29.623Z,66.7
2018-04-22T09:52:19.685Z,66.7
2018-04-22T09:53:09.774Z,66.7
2018-04-22T09:53:59.514Z,66.5
2018-04-22T09:54:49.628Z,66.5
2018-04-22T09:55:40.155Z,66.6
2018-04-22T09:56:30.008Z,66.4
2018-04-22T09:57:19.782Z,66.4
2018-04-22T09:58:10.139Z,66.4
2018-04-22T09:58:59.926Z,66.3
2018-04-22T09:59:50.263Z,66.3
2018-04-22T10:00:40.331Z,66.4
2018-04-22T10:01:29.824Z,66.5
2018-04-22T10:02:20.484Z,66.5
2018-04-22T10:03:10.520Z,66.4
2018-04-22T10:04:00.313Z,66.6
2018-04-22T10:04:50.745Z,66.8
2018-04-22T10:05:40.709Z,66.9
2018-04-22T10:06:30.858Z,66.9
2018-04-22T10:07:20.569Z,66.9
2018-04-22T10:08:10.923Z,66.9
2018-04-22T10:09:00.972Z,66.9
2018-04-22T10:09:51.042Z,67
2018-04-22T10:10:41.103Z,67.2
2018-04-22T10:11:30.911Z,67.4
2018-04-22T10:12:21.240Z,67.6
2018-04-22T10:13:11.301Z,67.6
2018-04-22T10:14:01.359Z,67.8
2018-04-22T10:14:50.876Z,67.9
2018-04-22T10:15:41.498Z,67.8
2018-04-22T10:16:31.434Z,67.8
2018-04-22T10:17:21.627Z,67.8
2018-04-22T10:18:11.152Z,67.9
2018-04-22T10:19:01.496Z,68.1
2018-04-22T10:19:51.857Z,68.1
2018-04-22T10:20:41.897Z,68.3
2018-04-22T10:21:31.975Z,68.3
2018-04-22T10:22:22.023Z,68.3
2018-04-22T10:23:11.812Z,68.3
2018-04-22T10:24:01.866Z,68.3
2018-04-22T10:24:52.208Z,68.3
2018-04-22T10:25:41.999Z,68.1
2018-04-22T10:26:32.342Z,67.9
2018-04-22T10:27:22.419Z,67.8
2018-04-22T10:28:12.486Z,67.8
2018-04-22T10:29:01.994Z,67.8
2018-04-22T10:29:52.632Z,67.9
2018-04-22T10:30:42.664Z,68.3
2018-04-22T10:31:32.754Z,68.6
2018-04-22T10:32:22.814Z,68.9
2018-04-22T10:33:12.867Z,69
2018-04-22T10:34:02.935Z,68.9
2018-04-22T10:34:52.741Z,68.9
2018-04-22T10:35:43.064Z,68.9
2018-04-22T10:36:33.046Z,69
2018-04-22T10:37:22.931Z,68.7
2018-04-22T10:38:13.257Z,68.6
2018-04-22T10:39:03.323Z,68.8
2018-04-22T10:39:53.401Z,68.9
2018-04-22T10:40:43.449Z,69
2018-04-22T10:41:33.533Z,69.1
2018-04-22T10:42:23.575Z,69.1
2018-04-22T10:43:13.647Z,69.1
2018-04-22T10:44:03.730Z,68.9
2018-04-22T10:44:53.506Z,68.9
2018-04-22T10:45:43.570Z,68.9
2018-04-22T10:46:33.938Z,68.6
2018-04-22T10:47:23.716Z,68.4
2018-04-22T10:48:14.034Z,68.1
2018-04-22T10:49:04.112Z,68
2018-04-22T10:49:54.198Z,67.9
2018-04-22T10:50:44.244Z,67.8
2018-04-22T10:51:34.300Z,67.8
2018-04-22T10:52:24.358Z,67.8
2018-04-22T10:53:14.431Z,67.6
2018-04-22T10:54:04.563Z,67.3
2018-04-22T10:54:54.565Z,67.1
2018-04-22T10:55:44.615Z,66.9
2018-04-22T10:56:34.693Z,67
2018-04-22T10:57:24.212Z,67.2
2018-04-22T10:58:14.821Z,67.2
2018-04-22T10:59:04.684Z,67.1
2018-04-22T10:59:55.193Z,67.1
2018-04-22T11:00:45.034Z,67.1
2018-04-22T11:01:34.789Z,67.3
2018-04-22T11:02:25.157Z,67.3
2018-04-22T11:03:14.922Z,67.3
2018-04-22T11:04:05.007Z,67.4
2018-04-22T11:04:55.124Z,67.4
2018-04-22T11:05:45.115Z,67.4
2018-04-22T11:06:35.489Z,67.5
2018-04-22T11:07:25.531Z,67.5
2018-04-22T11:08:15.315Z,67.6
2018-04-22T11:09:05.677Z,67.8
2018-04-22T11:09:55.441Z,67.8
2018-04-22T11:10:45.525Z,67.7
2018-04-22T11:11:35.592Z,67.8
2018-04-22T11:12:25.642Z,67.8
2018-04-22T11:13:15.724Z,67.8
2018-04-22T11:14:06.059Z,67.9
2018-04-22T11:14:56.130Z,68.1
2018-04-22T11:15:45.906Z,68.1
2018-04-22T11:16:36.274Z,68.1
2018-04-22T11:17:26.319Z,68.3
2018-04-22T11:18:16.377Z,68.5
2018-04-22T11:19:06.464Z,68.6
2018-04-22T11:19:56.527Z,68.6
2018-04-22T11:20:46.567Z,68.7
2018-04-22T11:21:36.646Z,68.8
2018-04-22T11:22:26.693Z,68.7
2018-04-22T11:23:16.505Z,68.6
2018-04-22T11:24:06.563Z,68.5
2018-04-22T11:24:56.949Z,68.4
2018-04-22T11:25:46.961Z,68.5
2018-04-22T11:26:37.050Z,68.4
2018-04-22T11:27:27.320Z,68.4